• Join FlightAware (Why Join?)
  • Login
  • US Flag 
11:01AM EDT


 

Airport Tracker/Info


-or-


 

Live Flight TrackerFlight Track Log ✈ QLK107D ✈ 01-Sep-2013 ✈ YCFS - YSSY / SYD

Flight Track Log - Related Links

Times and Time Zones

All times are in EDT time to prevent confusion due to time zone crossing. See the QLK107D flight status page for this flight to view local times or setup timezone preferences in your user account.

Time Position Orientation Groundspeed Altitude Reporting Facility
EDT Latitude Longitude Course Direction KTS MPH feet Rate Location/Type
08:18PM -30.3122 153.1172 209° Southwest 22,000  Level Aus ATC (Calculated)
08:19PM -30.4063 153.0555 221° Southwest 181 208 4,800 -10,620 Descending Aus ATC (RADAR)
08:19PM -30.4278 153.0341 221° Southwest 178 205 6,500 2,040 Climbing Aus ATC (RADAR)
08:20PM -30.4588 153.0087 215° Southwest 205 236 7,400 2,040 Climbing Aus ATC (RADAR)
08:21PM -30.5106 152.9684 214° Southwest 223 257 9,900 2,340 Climbing Aus ATC (RADAR)
08:22PM -30.5490 152.9352 217° Southwest 228 262 11,500 2,100 Climbing Aus ATC (RADAR)
08:22PM -30.5798 152.9094 216° Southwest 234 269 12,700 1,860 Climbing Aus ATC (RADAR)
08:23PM -30.6395 152.8609 215° Southwest 242 278 14,600 1,680 Climbing Aus ATC (RADAR)
08:24PM -30.6860 152.8238 214° Southwest 246 283 16,000 1,620 Climbing Aus ATC (RADAR)
08:25PM -30.7185 152.7970 215° Southwest 247 284 16,900 1,500 Climbing Aus ATC (RADAR)
08:25PM -30.7564 152.7663 215° Southwest 246 283 17,900 1,440 Climbing Aus ATC (RADAR)
08:26PM -30.7895 152.7388 216° Southwest 249 287 18,700 1,380 Climbing Aus ATC (RADAR)
08:26PM -30.8181 152.7152 215° Southwest 253 291 19,400 1,380 Climbing Aus ATC (RADAR)
08:27PM -30.8519 152.6876 215° Southwest 256 295 20,200 1,260 Climbing Aus ATC (RADAR)
08:28PM -30.8860 152.6592 216° Southwest 259 298 20,900 1,140 Climbing Aus ATC (RADAR)
08:29PM -30.9449 152.6108 215° Southwest 258 297 22,000 780 Climbing Aus ATC (RADAR)
08:29PM -31.0016 152.5642 215° Southwest 276 318 22,400 240 Climbing Aus ATC (RADAR)
08:30PM -31.0522 152.5223 215° Southwest 299 344 22,400  Level Aus ATC (RADAR)
08:31PM -31.0936 152.4881 215° Southwest 313 360 22,400  Level Aus ATC (RADAR)
08:32PM -31.1476 152.4434 215° Southwest 320 368 22,400  Level Aus ATC (RADAR)
08:33PM -31.2211 152.3822 215° Southwest 327 376 22,400  Level Aus ATC (RADAR)
08:34PM -31.3017 152.3154 215° Southwest 331 381 22,400  Level Aus ATC (RADAR)
08:35PM -31.3764 152.2525 216° Southwest 332 382 22,400  Level Aus ATC (RADAR)
08:35PM -31.4260 152.2110 215° Southwest 330 380 22,400  Level Aus ATC (RADAR)
08:36PM -31.4689 152.1752 215° Southwest 326 375 22,400  Level Aus ATC (RADAR)
08:37PM -31.5489 152.1092 215° Southwest 325 374 22,400  Level Aus ATC (RADAR)
08:38PM -31.5913 152.0728 216° Southwest 325 374 22,400  Level Aus ATC (RADAR)
08:39PM -31.6781 151.9999 216° Southwest 317 365 22,400  Level Aus ATC (RADAR)
08:40PM -31.7483 151.9409 216° Southwest 321 369 22,400  Level Aus ATC (RADAR)
08:40PM -31.8027 151.8956 215° Southwest 320 368 22,400  Level Aus ATC (RADAR)
08:41PM -31.8448 151.8599 216° Southwest 322 371 22,400  Level Aus ATC (RADAR)
08:42PM -31.8990 151.8145 215° Southwest 319 367 22,400  Level Aus ATC (RADAR)
08:43PM -31.9671 151.7565 216° Southwest 315 362 22,400  Level Aus ATC (RADAR)
08:44PM -32.0272 151.7052 216° Southwest 315 362 22,400  Level Aus ATC (RADAR)
08:45PM -32.0974 151.6459 216° Southwest 324 373 22,400  Level Aus ATC (RADAR)
08:45PM -32.1481 151.6024 216° Southwest 318 366 22,400  Level Aus ATC (RADAR)
08:46PM -32.1881 151.5687 215° Southwest 322 371 22,400  Level Aus ATC (RADAR)
08:46PM -32.2310 151.5330 215° Southwest 324 373 22,400  Level Aus ATC (RADAR)
08:47PM -32.2670 151.5018 216° Southwest 323 372 22,400  Level Aus ATC (RADAR)
08:47PM -32.3098 151.4656 216° Southwest 325 374 22,400  Level Aus ATC (RADAR)
08:48PM -32.3767 151.4082 216° Southwest 326 375 22,400  Level Aus ATC (RADAR)
08:49PM -32.4316 151.3611 216° Southwest 327 376 22,400  Level Aus ATC (RADAR)
08:50PM -32.4742 151.3246 216° Southwest 325 374 22,400  Level Aus ATC (RADAR)
08:50PM -32.5259 151.2807 216° Southwest 323 372 22,400  Level Aus ATC (RADAR)
08:51PM -32.6122 151.2515 196° South 327 376 22,400  Level Aus ATC (RADAR)
08:52PM -32.6870 151.2504 181° South 332 382 22,400  Level Aus ATC (RADAR)
08:53PM -32.7415 151.2489 181° South 332 382 22,400 -480 Level Aus ATC (RADAR)
08:54PM -32.8805 151.2393 183° South 328 377 21,500 -960 Descending Aus ATC (RADAR)
08:55PM -32.9525 151.2358 182° South 331 381 20,200 -1,740 Descending Aus ATC (RADAR)
08:56PM -33.0139 151.2338 182° South 332 382 19,000 -1,860 Descending Aus ATC (RADAR)
08:56PM -33.0755 151.2301 183° South 334 384 17,800 -1,860 Descending Aus ATC (RADAR)
08:57PM -33.1300 151.2270 183° South 337 388 16,700 -1,920 Descending Aus ATC (RADAR)
08:57PM -33.1806 151.2235 183° South 330 380 15,700 -1,860 Descending Aus ATC (RADAR)
08:58PM -33.2352 151.2200 183° South 329 379 14,700 -1,800 Descending Aus ATC (RADAR)
08:59PM -33.3242 151.2149 183° South 311 358 12,900 -1,680 Descending Aus ATC (RADAR)
09:00PM -33.4060 151.2108 182° South 305 351 11,400 -1,800 Descending Aus ATC (RADAR)
09:01PM -33.4628 151.2080 182° South 275 316 9,900 -1,920 Descending Aus ATC (RADAR)
09:01PM -33.5066 151.2055 183° South 265 305 9,000 -1,440 Descending Aus ATC (RADAR)
09:02PM -33.5462 151.2032 183° South 264 304 8,300 -1,380 Descending Aus ATC (RADAR)
09:02PM -33.5816 151.2011 183° South 257 296 7,600 -1,440 Descending Aus ATC (RADAR)
09:03PM -33.6224 151.1992 182° South 252 290 6,800 -600 Descending Aus ATC (RADAR)
09:04PM -33.7073 151.1942 183° South 246 283 6,600 -240 Descending Aus ATC (RADAR)
09:05PM -33.7681 151.2233 158° South 245 282 6,400 -300 Descending Aus ATC (RADAR)
09:06PM -33.8139 151.2548 150° Southeast 247 284 6,100 -300 Descending Aus ATC (RADAR)
09:06PM -33.8502 151.2786 151° Southeast 247 284 6,000 -120 Descending Aus ATC (RADAR)
09:07PM -33.8868 151.3025 152° Southeast 251 289 6,000  Level Aus ATC (RADAR)
09:08PM -33.9251 151.3234 156° South 254 292 6,000  Level Aus ATC (RADAR)
09:08PM -33.9649 151.3390 162° South 253 291 6,000 -480 Level Aus ATC (RADAR)
09:09PM -34.0499 151.3721 162° South 247 284 5,200 -720 Descending Aus ATC (RADAR)
09:10PM -34.1159 151.3734 179° South 248 285 4,400 -840 Descending Aus ATC (RADAR)
09:11PM -34.1363 151.3156 247° West 247 284 3,800 -840 Descending Aus ATC (RADAR)
09:12PM -34.1368 151.2732 269° West 237 273 3,300 -840 Descending Aus ATC (RADAR)
09:12PM -34.1132 151.2444 315° West 216 249 2,900 -960 Descending Aus ATC (RADAR)
09:13PM -34.0854 151.2216 326° Northwest 208 239 2,300 -1,080 Descending Aus ATC (RADAR)
09:13PM -34.0563 151.2153 350° North 198 228 1,700 -900 Descending Aus ATC (RADAR)
09:15PM -34.0092 151.2038 349° North 137 158 800 -720 Descending Aus ATC (RADAR)
09:16PM -33.9747 151.1950 348° North 125 144 200 -600 Descending Aus ATC (RADAR)